Newton, Illinois
Current Conditions -  °F | °C
As of 9:55 AM on Monday 24 Nov 2014 (Local Time) from KOLY Reporting Station
Haze Haze  
Wind Chill: 34°   Ceiling: 1700
Heat Index: 39°   Visibility: 5mi
Dew Point: 36°   Wind: 8mph
Humidity: 87%   Direction: 250°WSW
Pressure: 29.62"   Gusts: 20mph
Location:  38.99°N, 88.16°W
Report Text: KOLY 241555Z AUTO 25007G17KT 5SM BR OVC017 04/02 A2962 RMK AO2
Loading
Personal Weather Stations






























Interactive Weather Map New forecast layout! Learn more

10-Day Weather Forecast

Advertisements
Track Severe Weather on mobile